createdAt,value
2023-02-26T00:02:27.614Z,-0.30
2023-02-26T00:04:58.256Z,-0.30
2023-02-26T00:07:29.572Z,-0.30
2023-02-26T00:10:02.908Z,-0.30
2023-02-26T00:12:35.063Z,-0.40
2023-02-26T00:15:08.846Z,-0.40
2023-02-26T00:17:47.197Z,-0.30
2023-02-26T00:20:19.668Z,-0.40
2023-02-26T00:22:52.142Z,-0.30
2023-02-26T00:25:24.214Z,-0.40
2023-02-26T00:27:56.234Z,-0.40
2023-02-26T00:30:28.037Z,-0.40
2023-02-26T00:32:59.852Z,-0.40
2023-02-26T00:35:31.782Z,-0.40
2023-02-26T00:38:05.510Z,-0.40
2023-02-26T00:40:42.231Z,-0.40
2023-02-26T00:43:19.212Z,-0.40
2023-02-26T00:45:58.207Z,-0.40
2023-02-26T00:48:44.600Z,-0.50
2023-02-26T00:51:29.505Z,-0.50
2023-02-26T00:54:11.103Z,-0.50
2023-02-26T00:56:43.222Z,-0.60
2023-02-26T00:59:14.160Z,-0.60
2023-02-26T01:01:45.549Z,-0.60
2023-02-26T01:04:20.802Z,-0.70
2023-02-26T01:06:54.778Z,-0.80
2023-02-26T01:09:29.268Z,-0.80
2023-02-26T01:12:05.533Z,-0.80
2023-02-26T01:14:38.703Z,-0.80
2023-02-26T01:17:16.699Z,-0.80
2023-02-26T01:19:52.585Z,-0.80
2023-02-26T01:22:31.618Z,-0.80
2023-02-26T01:25:08.662Z,-0.80
2023-02-26T01:27:41.625Z,-0.80
2023-02-26T01:30:14.416Z,-0.90
2023-02-26T01:32:50.884Z,-0.80
2023-02-26T01:35:38.618Z,-0.80
2023-02-26T01:38:22.072Z,-0.80
2023-02-26T01:41:31.764Z,-0.80
2023-02-26T01:44:19.210Z,-0.80
2023-02-26T01:47:17.225Z,-0.80
2023-02-26T01:49:49.015Z,-0.80
2023-02-26T01:53:18.412Z,-0.80
2023-02-26T01:55:56.771Z,-0.70
2023-02-26T01:58:32.423Z,-0.70
2023-02-26T02:01:05.787Z,-0.70
2023-02-26T02:03:41.072Z,-0.70
2023-02-26T02:06:19.046Z,-0.70
2023-02-26T02:08:50.352Z,-0.70
2023-02-26T02:11:21.570Z,-0.70
2023-02-26T02:14:13.682Z,-0.70
2023-02-26T02:16:56.643Z,-0.70
2023-02-26T02:20:07.467Z,-0.70
2023-02-26T02:23:10.947Z,-0.60
2023-02-26T02:26:41.852Z,-0.70
2023-02-26T02:29:55.904Z,-0.60
2023-02-26T02:32:33.068Z,-0.60
2023-02-26T02:35:13.165Z,-0.60
2023-02-26T02:37:50.207Z,-0.60
2023-02-26T02:40:24.917Z,-0.60
2023-02-26T02:43:02.796Z,-0.60
2023-02-26T02:45:39.825Z,-0.60
2023-02-26T02:48:19.570Z,-0.60
2023-02-26T02:50:56.942Z,-0.60
2023-02-26T02:53:32.466Z,-0.60
2023-02-26T02:56:09.168Z,-0.60
2023-02-26T02:58:46.116Z,-0.70
2023-02-26T03:01:21.086Z,-0.60
2023-02-26T03:04:02.303Z,-0.70
2023-02-26T03:06:35.326Z,-0.70
2023-02-26T03:09:09.613Z,-0.70
2023-02-26T03:11:44.578Z,-0.70
2023-02-26T03:14:17.682Z,-0.70
2023-02-26T03:17:12.585Z,-0.70
2023-02-26T03:20:03.074Z,-0.70
2023-02-26T03:22:41.548Z,-0.70
2023-02-26T03:25:25.530Z,-0.80
2023-02-26T03:28:05.693Z,-0.80
2023-02-26T03:30:43.836Z,-0.80
2023-02-26T03:33:23.062Z,-0.80
2023-02-26T03:36:00.957Z,-0.80
2023-02-26T03:38:40.246Z,-0.90
2023-02-26T03:41:15.758Z,-0.90
2023-02-26T03:43:52.525Z,-0.90
2023-02-26T03:46:30.946Z,-0.90
2023-02-26T03:49:08.677Z,-0.90
2023-02-26T03:51:43.278Z,-0.90
2023-02-26T03:54:44.160Z,-0.90
2023-02-26T03:57:33.984Z,-0.80
2023-02-26T04:00:43.542Z,-0.80
2023-02-26T04:03:23.224Z,-0.80
2023-02-26T04:05:55.192Z,-0.80
2023-02-26T04:08:28.811Z,-0.90
2023-02-26T04:11:04.673Z,-0.90
2023-02-26T04:13:36.717Z,-0.90
2023-02-26T04:16:09.296Z,-0.90
2023-02-26T04:18:40.912Z,-0.90
2023-02-26T04:21:14.483Z,-0.90
2023-02-26T04:23:47.314Z,-0.90
2023-02-26T04:26:18.788Z,-0.90
2023-02-26T04:28:50.725Z,-0.90
2023-02-26T04:31:22.440Z,-0.90
2023-02-26T04:33:53.646Z,-0.90
2023-02-26T04:36:25.091Z,-0.90
2023-02-26T04:38:57.878Z,-0.90
2023-02-26T04:41:28.763Z,-0.90
2023-02-26T04:43:59.850Z,-0.90
2023-02-26T04:46:35.061Z,-0.90
2023-02-26T04:49:06.252Z,-0.90
2023-02-26T04:51:37.277Z,-1.00
2023-02-26T04:54:11.218Z,-1.00
2023-02-26T04:56:41.745Z,-1.10
2023-02-26T04:59:12.888Z,-1.00
2023-02-26T05:01:44.435Z,-1.00
2023-02-26T05:04:15.843Z,-1.00
2023-02-26T05:06:50.788Z,-1.00
2023-02-26T05:09:23.383Z,-1.00
2023-02-26T05:11:54.156Z,-1.00
2023-02-26T05:14:25.175Z,-1.00
2023-02-26T05:16:55.892Z,-1.00
2023-02-26T05:19:27.856Z,-1.00
2023-02-26T05:21:58.665Z,-1.00
2023-02-26T05:24:32.290Z,-1.00
2023-02-26T05:27:04.927Z,-1.00
2023-02-26T05:29:38.300Z,-1.00
2023-02-26T05:32:09.861Z,-1.00
2023-02-26T05:34:41.929Z,-0.90
2023-02-26T05:37:12.927Z,-1.00
2023-02-26T05:39:45.616Z,-0.90
2023-02-26T05:42:17.792Z,-0.90
2023-02-26T05:44:48.967Z,-0.90
2023-02-26T05:47:19.825Z,-0.90
2023-02-26T05:49:51.021Z,-0.90
2023-02-26T05:52:21.980Z,-0.90
2023-02-26T05:54:54.475Z,-0.90
2023-02-26T05:57:25.704Z,-0.80
2023-02-26T05:59:57.264Z,-0.80
2023-02-26T06:02:28.688Z,-0.80
2023-02-26T06:05:01.240Z,-0.80
2023-02-26T06:07:32.179Z,-0.80
2023-02-26T06:10:05.220Z,-0.80
2023-02-26T06:12:36.976Z,-0.80
2023-02-26T06:15:10.415Z,-0.80
2023-02-26T06:17:42.496Z,-0.80
2023-02-26T06:20:14.919Z,-0.80
2023-02-26T06:22:45.631Z,-0.80
2023-02-26T06:25:19.204Z,-0.80
2023-02-26T06:27:51.100Z,-0.80
2023-02-26T06:30:23.938Z,-0.80
2023-02-26T06:32:55.212Z,-0.80
2023-02-26T06:35:26.508Z,-0.80
2023-02-26T06:37:57.415Z,-0.80
2023-02-26T06:40:30.894Z,-0.70
2023-02-26T06:43:02.140Z,-0.80
2023-02-26T06:45:33.334Z,-0.80
2023-02-26T06:48:04.128Z,-0.80
2023-02-26T06:50:35.670Z,-0.80
2023-02-26T06:53:06.691Z,-0.80
2023-02-26T06:55:43.607Z,-0.80
2023-02-26T06:58:15.374Z,-0.80
2023-02-26T07:00:46.662Z,-0.80
2023-02-26T07:03:19.730Z,-0.70
2023-02-26T07:05:51.594Z,-0.70
2023-02-26T07:08:22.331Z,-0.80
2023-02-26T07:10:54.944Z,-0.80
2023-02-26T07:13:25.656Z,-0.70
2023-02-26T07:15:56.744Z,-0.70
2023-02-26T07:18:27.621Z,-0.70
2023-02-26T07:20:58.807Z,-0.70
2023-02-26T07:23:29.889Z,-0.70
2023-02-26T07:26:02.481Z,-0.60
2023-02-26T07:28:33.151Z,-0.70
2023-02-26T07:31:04.525Z,-0.70
2023-02-26T07:33:35.368Z,-0.70
2023-02-26T07:36:07.401Z,-0.60
2023-02-26T07:38:38.077Z,-0.70
2023-02-26T07:41:10.590Z,-0.70
2023-02-26T07:43:41.177Z,-0.60
2023-02-26T07:46:12.771Z,-0.60
2023-02-26T07:48:43.501Z,-0.60
2023-02-26T07:51:14.642Z,-0.60
2023-02-26T07:53:45.347Z,-0.70
2023-02-26T07:56:17.960Z,-0.70
2023-02-26T07:58:49.256Z,-0.50
2023-02-26T08:01:20.752Z,-0.50
2023-02-26T08:03:51.634Z,-0.50
2023-02-26T08:06:23.421Z,-0.50
2023-02-26T08:08:54.417Z,-0.70
2023-02-26T08:11:26.965Z,-0.60
2023-02-26T08:13:57.788Z,-0.50
2023-02-26T08:16:28.990Z,-0.50
2023-02-26T08:18:59.833Z,-0.40
2023-02-26T08:21:31.289Z,-0.60
2023-02-26T08:24:02.326Z,-0.50
2023-02-26T08:26:38.323Z,-0.40
2023-02-26T08:29:09.471Z,-0.50
2023-02-26T08:31:40.589Z,-0.50
2023-02-26T08:34:11.517Z,-0.50
2023-02-26T08:36:42.758Z,-0.50
2023-02-26T08:39:13.456Z,-0.40
2023-02-26T08:41:46.035Z,-0.40
2023-02-26T08:44:17.000Z,-0.30
2023-02-26T08:46:48.267Z,-0.30
2023-02-26T08:49:19.002Z,-0.20
2023-02-26T08:51:50.399Z,-0.30
2023-02-26T08:54:21.620Z,-0.20
2023-02-26T08:56:56.118Z,0.00
2023-02-26T08:59:26.899Z,-0.20
2023-02-26T09:01:57.901Z,-0.20
2023-02-26T09:04:31.039Z,-0.10
2023-02-26T09:07:02.386Z,-0.20
2023-02-26T09:09:32.953Z,-0.30
2023-02-26T09:12:05.803Z,-0.30
2023-02-26T09:14:36.708Z,0.10
2023-02-26T09:17:07.754Z,0.20
2023-02-26T09:19:38.529Z,0.30
2023-02-26T09:22:09.726Z,0.20
2023-02-26T09:24:40.465Z,0.20
2023-02-26T09:27:13.161Z,0.00
2023-02-26T09:29:43.878Z,-0.10
2023-02-26T09:32:15.195Z,0.10
2023-02-26T09:34:46.230Z,0.10
2023-02-26T09:37:17.371Z,0.00
2023-02-26T09:39:48.073Z,-0.10
2023-02-26T09:42:37.627Z,0.00
2023-02-26T09:45:13.804Z,0.10
2023-02-26T09:47:52.038Z,-0.10
2023-02-26T09:50:27.838Z,0.00
2023-02-26T09:53:04.395Z,0.30
2023-02-26T09:55:43.612Z,0.30
2023-02-26T09:58:24.629Z,0.30
2023-02-26T10:01:07.002Z,0.40
2023-02-26T10:04:00.201Z,0.30
2023-02-26T10:06:35.577Z,0.40
2023-02-26T10:09:32.310Z,0.60
2023-02-26T10:12:08.725Z,0.60
2023-02-26T10:14:49.332Z,0.80
2023-02-26T10:17:29.522Z,0.60
2023-02-26T10:20:10.451Z,0.60
2023-02-26T10:22:48.594Z,0.60
2023-02-26T10:25:24.322Z,0.80
2023-02-26T10:28:02.729Z,1.10
2023-02-26T10:30:44.120Z,1.00
2023-02-26T10:33:22.457Z,1.00
2023-02-26T10:35:59.804Z,1.20
2023-02-26T10:38:33.907Z,1.30
2023-02-26T10:41:12.136Z,1.10
2023-02-26T10:43:45.454Z,1.20
2023-02-26T10:46:32.447Z,1.00
2023-02-26T10:49:46.386Z,1.20
2023-02-26T10:52:20.858Z,1.30
2023-02-26T10:55:09.951Z,1.30
2023-02-26T10:57:48.727Z,1.10
2023-02-26T11:00:22.855Z,1.30
2023-02-26T11:02:57.938Z,1.20
2023-02-26T11:05:31.427Z,1.00
2023-02-26T11:08:06.122Z,0.90
2023-02-26T11:10:52.259Z,1.00
2023-02-26T11:13:24.757Z,0.80
2023-02-26T11:15:57.857Z,0.80
2023-02-26T11:18:32.367Z,0.90
2023-02-26T11:21:02.645Z,1.00
2023-02-26T11:23:34.802Z,1.10
2023-02-26T11:26:09.016Z,0.90
2023-02-26T11:28:47.410Z,0.80
2023-02-26T11:31:21.934Z,1.00
2023-02-26T11:34:00.315Z,1.30
2023-02-26T11:36:34.197Z,1.70
2023-02-26T11:39:10.358Z,2.20
2023-02-26T11:41:42.359Z,2.40
2023-02-26T11:44:18.620Z,2.50
2023-02-26T11:46:58.445Z,2.20
2023-02-26T11:49:32.616Z,2.00
2023-02-26T11:52:18.243Z,1.20
2023-02-26T11:54:51.282Z,1.20
2023-02-26T11:57:27.238Z,0.90
2023-02-26T12:00:03.894Z,0.90
2023-02-26T12:02:45.518Z,1.20
2023-02-26T12:05:19.942Z,1.30
2023-02-26T12:07:50.854Z,1.80
2023-02-26T12:10:31.338Z,2.60
2023-02-26T12:13:13.507Z,2.20
2023-02-26T12:15:56.832Z,1.30
2023-02-26T12:18:45.630Z,1.20
2023-02-26T12:21:46.300Z,1.00
2023-02-26T12:24:56.282Z,0.70
2023-02-26T12:27:43.903Z,0.90
2023-02-26T12:30:43.830Z,0.90
2023-02-26T12:33:30.479Z,0.80
2023-02-26T12:36:28.283Z,0.90
2023-02-26T12:39:18.674Z,1.00
2023-02-26T12:42:09.669Z,1.00
2023-02-26T12:45:05.729Z,0.80
2023-02-26T12:47:49.428Z,1.20
2023-02-26T12:50:57.723Z,1.70
2023-02-26T12:53:55.235Z,1.90
2023-02-26T12:56:59.351Z,1.80
2023-02-26T12:59:59.443Z,2.30
2023-02-26T13:03:51.918Z,2.20
2023-02-26T13:07:01.436Z,2.40
2023-02-26T13:09:53.598Z,1.40
2023-02-26T13:12:40.819Z,0.90
2023-02-26T13:15:41.714Z,1.10
2023-02-26T13:18:19.618Z,1.40
2023-02-26T13:21:00.652Z,1.50
2023-02-26T13:23:38.377Z,1.60
2023-02-26T13:26:13.501Z,1.80
2023-02-26T13:28:48.960Z,1.50
2023-02-26T13:31:26.800Z,0.70
2023-02-26T13:34:03.226Z,0.30
2023-02-26T13:36:35.447Z,0.40
2023-02-26T13:39:33.107Z,0.50
2023-02-26T13:42:22.920Z,0.70
2023-02-26T13:45:12.961Z,0.80
2023-02-26T13:48:05.284Z,1.20
2023-02-26T13:50:48.822Z,1.70
2023-02-26T13:53:54.370Z,1.70
2023-02-26T13:56:50.795Z,1.70
2023-02-26T13:59:55.516Z,1.90
2023-02-26T14:02:55.492Z,2.20
2023-02-26T14:05:55.858Z,2.20
2023-02-26T14:08:52.862Z,2.30
2023-02-26T14:11:43.994Z,2.00
2023-02-26T14:14:25.854Z,2.20
2023-02-26T14:17:32.548Z,2.30
2023-02-26T14:20:26.980Z,1.00
2023-02-26T14:23:39.418Z,0.90
2023-02-26T14:26:20.555Z,0.90
2023-02-26T14:29:08.278Z,1.30
2023-02-26T14:32:24.284Z,1.60
2023-02-26T14:34:59.533Z,0.80
2023-02-26T14:37:33.160Z,1.00
2023-02-26T14:40:14.868Z,1.10
2023-02-26T14:42:50.241Z,0.80
2023-02-26T14:45:31.810Z,0.50
2023-02-26T14:48:08.195Z,0.20
2023-02-26T14:50:50.285Z,0.00
2023-02-26T14:54:04.268Z,0.10
2023-02-26T14:56:52.942Z,0.40
2023-02-26T14:59:59.490Z,0.60
2023-02-26T15:02:34.958Z,0.80
2023-02-26T15:05:27.802Z,1.00
2023-02-26T15:08:36.026Z,0.60
2023-02-26T15:11:44.698Z,0.40
2023-02-26T15:14:53.997Z,0.20
2023-02-26T15:17:54.554Z,0.20
2023-02-26T15:20:41.946Z,0.20
2023-02-26T15:23:42.902Z,0.90
2023-02-26T15:26:23.255Z,1.90
2023-02-26T15:28:55.366Z,2.30
2023-02-26T15:31:35.866Z,2.20
2023-02-26T15:34:06.760Z,1.90
2023-02-26T15:36:41.611Z,1.90
2023-02-26T15:39:12.372Z,1.10
2023-02-26T15:41:43.513Z,0.90
2023-02-26T15:44:20.299Z,0.90
2023-02-26T15:46:57.720Z,1.50
2023-02-26T15:49:31.734Z,1.30
2023-02-26T15:52:06.944Z,1.20
2023-02-26T15:54:44.984Z,1.10
2023-02-26T15:57:20.320Z,1.00
2023-02-26T15:59:53.932Z,0.90
2023-02-26T16:02:31.329Z,0.90
2023-02-26T16:05:04.146Z,0.80
2023-02-26T16:07:36.754Z,0.80
2023-02-26T16:10:17.400Z,0.80
2023-02-26T16:12:51.664Z,0.80
2023-02-26T16:15:30.440Z,0.80
2023-02-26T16:18:03.613Z,0.80
2023-02-26T16:20:40.415Z,0.70
2023-02-26T16:23:17.559Z,0.70
2023-02-26T16:25:54.608Z,0.70
2023-02-26T16:28:31.580Z,0.70
2023-02-26T16:31:05.950Z,0.70
2023-02-26T16:33:39.066Z,0.70
2023-02-26T16:36:18.442Z,0.60
2023-02-26T16:38:58.034Z,0.60
2023-02-26T16:41:33.745Z,0.50
2023-02-26T16:44:26.588Z,0.40
2023-02-26T16:46:58.036Z,0.40
2023-02-26T16:49:34.438Z,0.40
2023-02-26T16:52:06.488Z,0.40
2023-02-26T16:54:43.394Z,0.30
2023-02-26T16:57:19.816Z,0.20
2023-02-26T16:59:55.102Z,0.20
2023-02-26T17:02:36.598Z,0.20
2023-02-26T17:05:22.605Z,0.10
2023-02-26T17:07:58.841Z,0.00
2023-02-26T17:10:39.901Z,-0.10
2023-02-26T17:13:19.547Z,0.10
2023-02-26T17:15:54.207Z,0.00
2023-02-26T17:18:25.378Z,0.00
2023-02-26T17:20:56.670Z,0.00
2023-02-26T17:23:37.019Z,0.10
2023-02-26T17:26:10.279Z,0.10
2023-02-26T17:28:44.485Z,0.10
2023-02-26T17:31:16.317Z,0.00
2023-02-26T17:33:47.505Z,0.00
2023-02-26T17:36:20.680Z,0.00
2023-02-26T17:38:51.312Z,0.10
2023-02-26T17:41:24.215Z,0.00
2023-02-26T17:43:55.512Z,0.00
2023-02-26T17:46:27.084Z,0.00
2023-02-26T17:48:58.309Z,0.10
2023-02-26T17:51:30.028Z,0.00
2023-02-26T17:54:00.899Z,0.00
2023-02-26T17:56:37.190Z,-0.10
2023-02-26T17:59:08.334Z,0.00
2023-02-26T18:01:41.796Z,0.00
2023-02-26T18:04:13.835Z,0.00
2023-02-26T18:06:45.462Z,0.00
2023-02-26T18:09:17.721Z,0.00
2023-02-26T18:11:50.799Z,0.00
2023-02-26T18:14:21.584Z,0.10
2023-02-26T18:16:52.828Z,0.10
2023-02-26T18:19:24.732Z,0.10
2023-02-26T18:21:56.174Z,0.10
2023-02-26T18:24:28.166Z,0.30
2023-02-26T18:27:00.722Z,0.30
2023-02-26T18:29:31.434Z,0.30
2023-02-26T18:32:03.839Z,0.30
2023-02-26T18:34:35.321Z,0.20
2023-02-26T18:37:06.713Z,0.20
2023-02-26T18:39:38.267Z,0.30
2023-02-26T18:42:20.788Z,0.20
2023-02-26T18:44:53.378Z,0.30
2023-02-26T18:47:25.472Z,0.20
2023-02-26T18:49:57.140Z,0.20
2023-02-26T18:52:28.354Z,0.20
2023-02-26T18:54:59.928Z,0.30
2023-02-26T18:57:33.760Z,0.20
2023-02-26T19:00:05.936Z,0.10
2023-02-26T19:02:37.681Z,0.20
2023-02-26T19:05:10.319Z,0.00
2023-02-26T19:07:42.830Z,0.10
2023-02-26T19:10:15.179Z,0.10
2023-02-26T19:12:48.288Z,0.10
2023-02-26T19:15:19.424Z,0.00
2023-02-26T19:17:50.357Z,0.00
2023-02-26T19:20:21.377Z,-0.10
2023-02-26T19:22:53.871Z,-0.10
2023-02-26T19:25:27.277Z,-0.10
2023-02-26T19:28:01.361Z,0.00
2023-02-26T19:30:34.717Z,0.00
2023-02-26T19:33:06.085Z,-0.10
2023-02-26T19:35:37.435Z,-0.10
2023-02-26T19:38:10.249Z,-0.10
2023-02-26T19:40:41.404Z,-0.10
2023-02-26T19:43:13.902Z,-0.20
2023-02-26T19:45:44.651Z,-0.30
2023-02-26T19:48:15.961Z,-0.30
2023-02-26T19:50:51.157Z,-0.30
2023-02-26T19:53:22.928Z,-0.50
2023-02-26T19:55:54.210Z,-0.40
2023-02-26T19:58:30.758Z,-0.40
2023-02-26T20:01:06.080Z,-0.50
2023-02-26T20:03:38.989Z,-0.40
2023-02-26T20:06:12.723Z,-0.40
2023-02-26T20:08:45.917Z,-0.30
2023-02-26T20:11:18.008Z,-0.30
2023-02-26T20:13:51.734Z,-0.30
2023-02-26T20:16:22.587Z,-0.30
2023-02-26T20:18:53.868Z,-0.30
2023-02-26T20:21:27.736Z,-0.20
2023-02-26T20:23:59.192Z,-0.20
2023-02-26T20:26:30.138Z,-0.10
2023-02-26T20:29:03.095Z,-0.10
2023-02-26T20:31:34.217Z,-0.10
2023-02-26T20:34:06.776Z,-0.10
2023-02-26T20:36:39.010Z,-0.10
2023-02-26T20:39:10.786Z,-0.10
2023-02-26T20:41:42.138Z,-0.10
2023-02-26T20:44:14.761Z,-0.10
2023-02-26T20:46:47.829Z,-0.10
2023-02-26T20:49:20.658Z,-0.10
2023-02-26T20:51:53.020Z,-0.10
2023-02-26T20:54:24.762Z,0.00
2023-02-26T20:56:55.961Z,-0.10
2023-02-26T20:59:29.395Z,-0.10
2023-02-26T21:02:00.643Z,-0.10
2023-02-26T21:04:32.301Z,0.00
2023-02-26T21:07:22.143Z,0.00
2023-02-26T21:09:55.523Z,0.00
2023-02-26T21:12:27.513Z,0.00
2023-02-26T21:15:00.375Z,0.00
2023-02-26T21:17:31.920Z,0.10
2023-02-26T21:20:06.221Z,0.00
2023-02-26T21:22:37.734Z,0.00
2023-02-26T21:25:10.757Z,0.00
2023-02-26T21:27:42.117Z,0.00
2023-02-26T21:30:16.461Z,0.00
2023-02-26T21:32:47.648Z,-0.10
2023-02-26T21:35:19.432Z,-0.10
2023-02-26T21:37:50.077Z,-0.10
2023-02-26T21:40:21.531Z,-0.20
2023-02-26T21:42:52.375Z,-0.10
2023-02-26T21:45:25.086Z,-0.10
2023-02-26T21:47:55.932Z,-0.20
2023-02-26T21:50:27.052Z,-0.20
2023-02-26T21:52:58.089Z,-0.20
2023-02-26T21:55:29.305Z,-0.20
2023-02-26T21:58:00.562Z,-0.20
2023-02-26T22:00:33.027Z,-0.30
2023-02-26T22:03:05.528Z,-0.20
2023-02-26T22:05:37.008Z,-0.30
2023-02-26T22:08:08.181Z,-0.20
2023-02-26T22:10:39.436Z,-0.20
2023-02-26T22:13:10.227Z,-0.20
2023-02-26T22:15:43.335Z,-0.30
2023-02-26T22:18:14.083Z,-0.20
2023-02-26T22:20:45.201Z,-0.20
2023-02-26T22:23:16.235Z,-0.30
2023-02-26T22:25:47.651Z,-0.20
2023-02-26T22:28:18.786Z,-0.30
2023-02-26T22:30:51.898Z,-0.20
2023-02-26T22:33:23.097Z,-0.20
2023-02-26T22:35:57.963Z,-0.20
2023-02-26T22:38:29.027Z,-0.20
2023-02-26T22:41:00.493Z,-0.20
2023-02-26T22:43:31.378Z,-0.20
2023-02-26T22:46:04.196Z,-0.20
2023-02-26T22:48:35.308Z,-0.30
2023-02-26T22:51:07.180Z,-0.20
2023-02-26T22:53:37.854Z,-0.20
2023-02-26T22:56:09.689Z,-0.20
2023-02-26T22:58:40.491Z,-0.30
2023-02-26T23:01:13.115Z,-0.30
2023-02-26T23:03:44.317Z,-0.20
2023-02-26T23:06:16.309Z,-0.20
2023-02-26T23:08:46.984Z,-0.30
2023-02-26T23:11:18.226Z,-0.30
2023-02-26T23:13:48.977Z,-0.30
2023-02-26T23:16:21.395Z,-0.20
2023-02-26T23:18:52.183Z,-0.20
2023-02-26T23:21:23.320Z,-0.20
2023-02-26T23:23:54.051Z,-0.30
2023-02-26T23:26:25.486Z,-0.30
2023-02-26T23:28:56.450Z,-0.30
2023-02-26T23:31:29.397Z,-0.30
2023-02-26T23:34:00.468Z,-0.30
2023-02-26T23:36:31.604Z,-0.30
2023-02-26T23:39:02.335Z,-0.30
2023-02-26T23:41:33.424Z,-0.30
2023-02-26T23:44:04.200Z,-0.40
2023-02-26T23:46:37.547Z,-0.40
2023-02-26T23:49:09.659Z,-0.40
2023-02-26T23:51:40.642Z,-0.40
2023-02-26T23:54:13.236Z,-0.40
2023-02-26T23:56:46.360Z,-0.40
2023-02-26T23:59:18.542Z,-0.40
